createdAt,value
2022-12-19T00:01:37.127Z,-16.02
2022-12-19T00:04:09.492Z,-16.02
2022-12-19T00:06:43.646Z,-16.06
2022-12-19T00:09:14.104Z,-16.08
2022-12-19T00:11:43.083Z,-16.12
2022-12-19T00:14:12.894Z,-16.13
2022-12-19T00:16:41.636Z,-16.14
2022-12-19T00:19:12.516Z,-16.14
2022-12-19T00:21:41.339Z,-16.17
2022-12-19T00:24:21.462Z,-16.21
2022-12-19T00:26:51.085Z,-16.21
2022-12-19T00:29:21.462Z,-16.19
2022-12-19T00:31:50.808Z,-16.20
2022-12-19T00:34:19.714Z,-16.19
2022-12-19T00:36:48.529Z,-16.24
2022-12-19T00:39:19.367Z,-16.29
2022-12-19T00:41:48.245Z,-16.33
2022-12-19T00:44:17.303Z,-16.35
2022-12-19T00:46:51.846Z,-16.36
2022-12-19T00:49:22.241Z,-16.38
2022-12-19T00:51:51.120Z,-16.40
2022-12-19T00:54:20.148Z,-16.44
2022-12-19T00:56:49.081Z,-16.43
2022-12-19T00:59:20.073Z,-16.43
2022-12-19T01:01:59.278Z,-16.47
2022-12-19T01:04:29.511Z,-16.46
2022-12-19T01:07:02.783Z,-16.46
2022-12-19T01:09:36.544Z,-16.48
2022-12-19T01:12:25.074Z,-16.45
2022-12-19T01:15:03.733Z,-16.39
2022-12-19T01:17:36.514Z,-16.31
2022-12-19T01:20:17.559Z,-16.26
2022-12-19T01:22:48.737Z,-16.19
2022-12-19T01:25:17.715Z,-16.18
2022-12-19T01:27:46.525Z,-16.18
2022-12-19T01:30:15.503Z,-16.21
2022-12-19T01:32:45.662Z,-16.21
2022-12-19T01:35:21.178Z,-16.24
2022-12-19T01:37:51.626Z,-16.25
2022-12-19T01:40:21.982Z,-16.27
2022-12-19T01:42:51.072Z,-16.25
2022-12-19T01:45:34.091Z,-16.20
2022-12-19T01:48:31.642Z,-16.16
2022-12-19T01:51:04.857Z,-16.08
2022-12-19T01:53:48.700Z,-16.02
2022-12-19T01:56:23.579Z,-15.98
2022-12-19T01:59:05.662Z,-15.96
2022-12-19T02:01:51.669Z,-15.92
2022-12-19T02:04:27.799Z,-15.94
2022-12-19T02:07:04.317Z,-15.93
2022-12-19T02:09:56.554Z,-15.96
2022-12-19T02:12:34.433Z,-16.01
2022-12-19T02:15:05.109Z,-16.02
2022-12-19T02:17:56.719Z,-15.95
2022-12-19T02:21:05.820Z,-15.87
2022-12-19T02:23:49.750Z,-15.79
2022-12-19T02:26:37.948Z,-15.76
2022-12-19T02:29:10.240Z,-15.71
2022-12-19T02:32:22.135Z,-15.66
2022-12-19T02:35:02.063Z,-15.58
2022-12-19T02:37:35.528Z,-15.50
2022-12-19T02:40:20.422Z,-15.41
2022-12-19T02:43:04.574Z,-15.32
2022-12-19T02:45:37.795Z,-15.27
2022-12-19T02:48:09.136Z,-15.26
2022-12-19T02:50:47.890Z,-15.15
2022-12-19T02:53:24.118Z,-14.93
2022-12-19T02:56:23.950Z,-14.85
2022-12-19T02:59:19.468Z,-14.71
2022-12-19T03:01:58.323Z,-14.54
2022-12-19T03:04:57.150Z,-14.52
2022-12-19T03:07:44.850Z,-14.62
2022-12-19T03:10:36.833Z,-14.71
2022-12-19T03:13:32.019Z,-14.74
2022-12-19T03:16:04.079Z,-14.76
2022-12-19T03:18:34.548Z,-14.77
2022-12-19T03:21:16.308Z,-14.77
2022-12-19T03:23:46.576Z,-14.70
2022-12-19T03:26:24.885Z,-14.63
2022-12-19T03:29:43.155Z,-14.58
2022-12-19T03:32:14.789Z,-14.53
2022-12-19T03:34:56.468Z,-14.43
2022-12-19T03:37:29.283Z,-14.26
2022-12-19T03:40:05.040Z,-14.05
2022-12-19T03:42:53.519Z,-13.90
2022-12-19T03:45:30.152Z,-13.75
2022-12-19T03:48:04.882Z,-13.64
2022-12-19T03:50:46.546Z,-13.52
2022-12-19T03:53:44.242Z,-13.33
2022-12-19T03:56:31.709Z,-13.03
2022-12-19T03:59:10.501Z,-12.80
2022-12-19T04:01:41.329Z,-12.72
2022-12-19T04:04:14.439Z,-12.81
2022-12-19T04:06:44.831Z,-12.83
2022-12-19T04:09:19.187Z,-12.78
2022-12-19T04:11:59.732Z,-12.76
2022-12-19T04:14:36.915Z,-12.74
2022-12-19T04:17:15.456Z,-12.77
2022-12-19T04:19:58.152Z,-12.75
2022-12-19T04:22:36.783Z,-12.68
2022-12-19T04:25:12.019Z,-12.58
2022-12-19T04:27:45.626Z,-12.42
2022-12-19T04:30:17.325Z,-12.34
2022-12-19T04:32:47.416Z,-12.28
2022-12-19T04:35:16.409Z,-12.16
2022-12-19T04:37:45.362Z,-12.02
2022-12-19T04:40:14.683Z,-12.00
2022-12-19T04:42:43.498Z,-12.03
2022-12-19T04:45:12.447Z,-12.13
2022-12-19T04:47:41.677Z,-12.24
2022-12-19T04:50:10.898Z,-12.19
2022-12-19T04:52:39.836Z,-12.04
2022-12-19T04:55:09.240Z,-11.85
2022-12-19T04:57:38.339Z,-11.76
2022-12-19T05:00:09.365Z,-11.70
2022-12-19T05:02:39.496Z,-11.67
2022-12-19T05:05:08.958Z,-11.68
2022-12-19T05:07:37.930Z,-11.65
2022-12-19T05:10:07.572Z,-11.64
2022-12-19T05:12:36.454Z,-11.54
2022-12-19T05:15:06.440Z,-11.44
2022-12-19T05:17:35.542Z,-11.42
2022-12-19T05:20:05.442Z,-11.45
2022-12-19T05:22:34.228Z,-11.47
2022-12-19T05:25:03.058Z,-11.42
2022-12-19T05:27:31.974Z,-11.37
2022-12-19T05:30:01.887Z,-11.31
2022-12-19T05:32:32.763Z,-11.28
2022-12-19T05:35:01.597Z,-11.34
2022-12-19T05:37:31.287Z,-11.34
2022-12-19T05:40:00.160Z,-11.40
2022-12-19T05:42:28.961Z,-11.47
2022-12-19T05:44:58.559Z,-11.50
2022-12-19T05:47:27.371Z,-11.58
2022-12-19T05:49:56.199Z,-11.70
2022-12-19T05:52:25.350Z,-11.82
2022-12-19T05:54:54.493Z,-11.87
2022-12-19T05:57:23.595Z,-11.88
2022-12-19T05:59:52.605Z,-11.90
2022-12-19T06:02:22.179Z,-11.91
2022-12-19T06:04:51.347Z,-11.89
2022-12-19T06:07:21.362Z,-11.88
2022-12-19T06:09:50.261Z,-11.96
2022-12-19T06:12:19.070Z,-11.95
2022-12-19T06:14:47.854Z,-11.91
2022-12-19T06:17:16.697Z,-11.98
2022-12-19T06:19:45.896Z,-11.99
2022-12-19T06:22:14.981Z,-11.98
2022-12-19T06:24:43.840Z,-12.00
2022-12-19T06:27:12.658Z,-12.01
2022-12-19T06:29:41.517Z,-11.99
2022-12-19T06:32:10.408Z,-11.94
2022-12-19T06:35:03.094Z,-11.96
2022-12-19T06:37:28.522Z,-11.99
2022-12-19T06:39:57.435Z,-12.04
2022-12-19T06:42:26.389Z,-12.07
2022-12-19T06:44:56.951Z,-12.14
2022-12-19T06:47:26.299Z,-12.17
2022-12-19T06:49:55.140Z,-12.18
2022-12-19T06:52:24.072Z,-12.19
2022-12-19T06:54:52.920Z,-12.18
2022-12-19T06:57:21.797Z,-12.24
2022-12-19T06:59:50.790Z,-12.29
2022-12-19T07:02:29.663Z,-12.28
2022-12-19T07:05:07.839Z,-12.32
2022-12-19T07:07:36.834Z,-12.37
2022-12-19T07:10:06.803Z,-12.39
2022-12-19T07:12:37.585Z,-12.41
2022-12-19T07:15:07.082Z,-12.42
2022-12-19T07:17:36.002Z,-12.46
2022-12-19T07:20:06.021Z,-12.43
2022-12-19T07:22:37.015Z,-12.42
2022-12-19T07:25:07.010Z,-12.46
2022-12-19T07:27:36.676Z,-12.49
2022-12-19T07:30:07.261Z,-12.51
2022-12-19T07:32:37.453Z,-12.52
2022-12-19T07:35:07.881Z,-12.55
2022-12-19T07:37:36.685Z,-12.55
2022-12-19T07:40:05.962Z,-12.61
2022-12-19T07:42:34.873Z,-12.66
2022-12-19T07:45:03.770Z,-12.67
2022-12-19T07:47:34.338Z,-12.76
2022-12-19T07:50:05.708Z,-12.78
2022-12-19T07:52:40.274Z,-12.80
2022-12-19T07:55:10.275Z,-12.85
2022-12-19T07:57:39.209Z,-12.86
2022-12-19T08:00:09.606Z,-12.83
2022-12-19T08:02:42.385Z,-12.81
2022-12-19T08:05:12.202Z,-12.82
2022-12-19T08:07:41.453Z,-12.81
2022-12-19T08:10:13.007Z,-12.82
2022-12-19T08:12:42.618Z,-12.82
2022-12-19T08:15:11.804Z,-12.80
2022-12-19T08:17:41.262Z,-12.84
2022-12-19T08:20:14.459Z,-12.88
2022-12-19T08:22:43.316Z,-12.94
2022-12-19T08:25:13.077Z,-13.07
2022-12-19T08:27:43.679Z,-13.10
2022-12-19T08:30:15.812Z,-13.18
2022-12-19T08:32:45.862Z,-13.24
2022-12-19T08:35:15.093Z,-13.32
2022-12-19T08:37:43.912Z,-13.42
2022-12-19T08:40:13.169Z,-13.52
2022-12-19T08:42:42.405Z,-13.65
2022-12-19T08:45:11.513Z,-13.77
2022-12-19T08:47:40.336Z,-13.88
2022-12-19T08:50:09.526Z,-13.99
2022-12-19T08:52:38.306Z,-14.04
2022-12-19T08:55:07.463Z,-14.09
2022-12-19T08:57:36.729Z,-14.11
2022-12-19T09:00:09.200Z,-14.12
2022-12-19T09:02:38.886Z,-14.14
2022-12-19T09:06:01.342Z,-14.12
2022-12-19T09:07:57.109Z,-14.16
2022-12-19T09:10:25.978Z,-14.23
2022-12-19T09:12:57.828Z,-14.25
2022-12-19T09:15:27.479Z,-14.26
2022-12-19T09:17:56.988Z,-14.33
2022-12-19T09:20:26.204Z,-14.32
2022-12-19T09:22:55.688Z,-14.27
2022-12-19T09:25:24.642Z,-14.24
2022-12-19T09:28:26.433Z,-14.26
2022-12-19T09:30:42.905Z,-14.23
2022-12-19T09:33:13.236Z,-14.20
2022-12-19T09:35:54.454Z,-14.20
2022-12-19T09:38:26.806Z,-14.22
2022-12-19T09:40:55.663Z,-14.24
2022-12-19T09:43:42.088Z,-14.27
2022-12-19T09:46:20.655Z,-14.27
2022-12-19T09:48:55.394Z,-14.31
2022-12-19T09:51:39.384Z,-14.35
2022-12-19T09:54:16.331Z,-14.40
2022-12-19T09:56:46.918Z,-14.42
2022-12-19T09:59:28.277Z,-14.43
2022-12-19T10:02:21.551Z,-14.42
2022-12-19T10:05:10.408Z,-14.43
2022-12-19T10:08:05.398Z,-14.46
2022-12-19T10:12:43.487Z,-14.47
2022-12-19T10:14:04.259Z,-14.48
2022-12-19T10:17:23.765Z,-14.49
2022-12-19T10:20:16.529Z,-14.51
2022-12-19T10:22:55.568Z,-14.52
2022-12-19T10:25:37.087Z,-14.53
2022-12-19T10:28:38.207Z,-14.47
2022-12-19T10:31:22.928Z,-14.48
2022-12-19T10:34:03.553Z,-14.49
2022-12-19T10:37:12.803Z,-14.49
2022-12-19T10:39:44.398Z,-14.51
2022-12-19T10:42:47.303Z,-14.53
2022-12-19T10:45:22.034Z,-14.58
2022-12-19T10:47:57.198Z,-14.60
2022-12-19T10:50:30.433Z,-14.65
2022-12-19T10:53:05.218Z,-14.67
2022-12-19T10:55:35.201Z,-14.69
2022-12-19T10:58:12.750Z,-14.73
2022-12-19T11:00:57.158Z,-14.78
2022-12-19T11:03:26.546Z,-14.80
2022-12-19T11:05:58.668Z,-14.79
2022-12-19T11:08:31.398Z,-14.88
2022-12-19T11:12:54.756Z,-14.87
2022-12-19T11:17:55.025Z,-14.88
2022-12-19T11:21:36.554Z,-14.90
2022-12-19T11:29:16.170Z,-14.90
2022-12-19T11:30:06.370Z,-14.83
2022-12-19T11:30:36.555Z,-14.78
2022-12-19T11:30:46.428Z,-14.83
2022-12-19T11:34:17.095Z,-14.78
2022-12-19T11:36:59.519Z,-14.81
2022-12-19T11:39:37.427Z,-14.83
2022-12-19T11:42:13.257Z,-14.85
2022-12-19T11:44:56.457Z,-14.89
2022-12-19T11:47:52.404Z,-14.91
2022-12-19T11:50:31.511Z,-14.99
2022-12-19T11:53:18.868Z,-14.98
2022-12-19T11:55:52.184Z,-15.00
2022-12-19T11:58:23.494Z,-15.02
2022-12-19T12:01:21.333Z,-15.01
2022-12-19T12:04:12.026Z,-15.05
2022-12-19T12:06:52.644Z,-15.01
2022-12-19T12:15:37.938Z,-15.01
2022-12-19T12:19:05.188Z,-15.01
2022-12-19T12:28:29.672Z,-15.01
2022-12-19T12:31:01.217Z,-15.03
2022-12-19T12:31:41.203Z,-15.05
2022-12-19T12:31:52.227Z,-15.07
2022-12-19T12:31:56.044Z,-15.05
2022-12-19T12:35:57.122Z,-15.07
2022-12-19T12:38:16.675Z,-15.10
2022-12-19T12:40:58.363Z,-15.08
2022-12-19T12:43:42.453Z,-15.07
2022-12-19T12:46:18.039Z,-15.05
2022-12-19T12:48:47.143Z,-15.04
2022-12-19T12:51:16.808Z,-15.05
2022-12-19T12:53:49.113Z,-15.07
2022-12-19T12:56:19.854Z,-15.08
2022-12-19T12:58:51.535Z,-15.14
2022-12-19T13:01:30.804Z,-15.18
2022-12-19T13:04:14.044Z,-15.22
2022-12-19T13:06:53.205Z,-15.25
2022-12-19T13:09:26.108Z,-15.31
2022-12-19T13:12:19.660Z,-15.38
2022-12-19T13:14:51.243Z,-15.47
2022-12-19T13:17:45.572Z,-15.50
2022-12-19T13:20:35.437Z,-15.55
2022-12-19T13:23:21.388Z,-15.61
2022-12-19T13:25:55.167Z,-15.68
2022-12-19T13:28:27.937Z,-15.70
2022-12-19T13:31:13.499Z,-15.72
2022-12-19T13:33:55.753Z,-15.73
2022-12-19T13:39:50.575Z,-15.77
2022-12-19T13:40:12.299Z,-15.81
2022-12-19T13:43:34.363Z,-15.83
2022-12-19T13:46:06.358Z,-15.82
2022-12-19T13:48:43.097Z,-15.77
2022-12-19T13:51:14.173Z,-15.72
2022-12-19T13:53:44.510Z,-15.70
2022-12-19T13:56:16.537Z,-15.64
2022-12-19T13:58:58.975Z,-15.59
2022-12-19T14:01:30.101Z,-15.51
2022-12-19T14:04:07.734Z,-15.47
2022-12-19T14:06:47.893Z,-15.44
2022-12-19T14:11:33.775Z,-15.41
2022-12-19T14:13:53.161Z,-15.39
2022-12-19T14:15:42.068Z,-15.35
2022-12-19T14:18:43.398Z,-15.31
2022-12-19T14:22:08.919Z,-15.25
2022-12-19T14:24:25.706Z,-15.21
2022-12-19T14:28:26.077Z,-15.22
2022-12-19T14:30:27.558Z,-15.16
2022-12-19T14:33:46.387Z,-15.16
2022-12-19T14:36:08.960Z,-15.16
2022-12-19T14:39:24.342Z,-15.16
2022-12-19T14:41:47.593Z,-15.14
2022-12-19T14:51:51.541Z,-15.14
2022-12-19T14:54:07.659Z,-15.09
2022-12-19T14:54:13.170Z,-15.10
2022-12-19T14:54:32.220Z,-15.08
2022-12-19T14:56:53.846Z,-15.07
2022-12-19T14:59:56.546Z,-15.03
2022-12-19T15:02:34.190Z,-14.99
2022-12-19T15:05:12.307Z,-14.99
2022-12-19T15:07:45.290Z,-14.96
2022-12-19T15:11:05.088Z,-14.92
2022-12-19T15:14:49.426Z,-14.94
2022-12-19T15:16:29.595Z,-14.93
2022-12-19T15:19:00.833Z,-14.94
2022-12-19T15:21:31.436Z,-14.99
2022-12-19T15:24:00.538Z,-15.05
2022-12-19T15:26:35.877Z,-15.12
2022-12-19T15:29:15.438Z,-15.21
2022-12-19T15:31:48.834Z,-15.24
2022-12-19T15:37:16.131Z,-15.26
2022-12-19T15:39:46.169Z,-15.26
2022-12-19T15:42:25.982Z,-15.24
2022-12-19T15:45:00.805Z,-15.26
2022-12-19T15:47:33.807Z,-15.25
2022-12-19T15:50:12.340Z,-15.27
2022-12-19T15:52:41.202Z,-15.27
2022-12-19T15:55:15.236Z,-15.30
2022-12-19T15:57:49.903Z,-15.31
2022-12-19T16:00:26.951Z,-15.33
2022-12-19T16:03:22.443Z,-15.37
2022-12-19T16:05:46.496Z,-15.38
2022-12-19T16:08:19.027Z,-15.35
2022-12-19T16:10:59.396Z,-15.34
2022-12-19T16:13:34.768Z,-15.36
2022-12-19T16:16:11.081Z,-15.33
2022-12-19T16:18:44.987Z,-15.31
2022-12-19T16:21:33.286Z,-15.27
2022-12-19T16:24:03.115Z,-15.25
2022-12-19T16:26:36.930Z,-15.23
2022-12-19T16:29:07.209Z,-15.23
2022-12-19T16:31:36.197Z,-15.25
2022-12-19T16:34:16.801Z,-15.24
2022-12-19T16:36:45.795Z,-15.25
2022-12-19T16:39:15.407Z,-15.18
2022-12-19T16:41:46.031Z,-15.15
2022-12-19T16:44:23.849Z,-15.14
2022-12-19T16:46:53.301Z,-15.20
2022-12-19T16:49:23.611Z,-15.25
2022-12-19T16:51:52.845Z,-15.30
2022-12-19T16:54:21.659Z,-15.31
2022-12-19T16:56:53.276Z,-15.33
2022-12-19T16:59:28.707Z,-15.38
2022-12-19T17:01:59.784Z,-15.53
2022-12-19T17:04:30.651Z,-15.52
2022-12-19T17:07:00.830Z,-15.56
2022-12-19T17:09:30.055Z,-15.62
2022-12-19T17:12:01.497Z,-15.66
2022-12-19T17:14:35.249Z,-15.70
2022-12-19T17:17:04.097Z,-15.73
2022-12-19T17:19:37.889Z,-15.78
2022-12-19T17:22:17.420Z,-15.83
2022-12-19T17:24:47.482Z,-15.84
2022-12-19T17:27:18.017Z,-15.86
2022-12-19T17:29:47.772Z,-15.84
2022-12-19T17:32:23.463Z,-15.83
2022-12-19T17:34:53.433Z,-15.82
2022-12-19T17:37:22.491Z,-15.79
2022-12-19T17:39:51.228Z,-15.78
2022-12-19T17:42:23.877Z,-15.73
2022-12-19T17:44:53.003Z,-15.69
2022-12-19T17:47:22.107Z,-15.65
2022-12-19T17:49:51.531Z,-15.64
2022-12-19T17:52:21.262Z,-15.56
2022-12-19T17:54:50.075Z,-15.52
2022-12-19T17:57:20.042Z,-15.52
2022-12-19T17:59:48.813Z,-15.48
2022-12-19T18:02:23.821Z,-15.42
2022-12-19T18:04:53.744Z,-15.38
2022-12-19T18:07:22.489Z,-15.42
2022-12-19T18:09:51.315Z,-15.38
2022-12-19T18:12:20.266Z,-15.33
2022-12-19T18:14:48.984Z,-15.29
2022-12-19T18:17:26.187Z,-15.27
2022-12-19T18:19:55.363Z,-15.25
2022-12-19T18:22:24.171Z,-15.21
2022-12-19T18:24:53.022Z,-15.18
2022-12-19T18:27:21.850Z,-15.16
2022-12-19T18:29:50.875Z,-15.15
2022-12-19T18:32:21.231Z,-15.10
2022-12-19T18:34:50.174Z,-15.11
2022-12-19T18:37:18.991Z,-15.09
2022-12-19T18:39:47.811Z,-15.07
2022-12-19T18:42:23.154Z,-15.05
2022-12-19T18:44:52.286Z,-15.06
2022-12-19T18:47:24.109Z,-15.04
2022-12-19T18:49:53.401Z,-15.04
2022-12-19T18:52:22.183Z,-15.01
2022-12-19T18:54:50.941Z,-15.00
2022-12-19T18:57:21.140Z,-15.01
2022-12-19T18:59:50.906Z,-15.01
2022-12-19T19:02:30.049Z,-15.01
2022-12-19T19:04:59.961Z,-15.03
2022-12-19T19:07:28.930Z,-15.02
2022-12-19T19:09:57.790Z,-14.98
2022-12-19T19:12:43.042Z,-14.96
2022-12-19T19:15:12.267Z,-14.94
2022-12-19T19:17:43.214Z,-14.91
2022-12-19T19:20:12.593Z,-14.88
2022-12-19T19:22:42.189Z,-14.87
2022-12-19T19:25:11.571Z,-14.92
2022-12-19T19:27:42.293Z,-14.84
2022-12-19T19:30:12.965Z,-14.85
2022-12-19T19:32:53.028Z,-14.81
2022-12-19T19:35:23.070Z,-14.82
2022-12-19T19:37:56.116Z,-14.80
2022-12-19T19:40:24.956Z,-14.82
2022-12-19T19:42:53.829Z,-14.84
2022-12-19T19:45:24.002Z,-14.80
2022-12-19T19:47:52.752Z,-14.80
2022-12-19T19:50:21.645Z,-14.78
2022-12-19T19:52:50.479Z,-14.79
2022-12-19T19:55:19.426Z,-14.75
2022-12-19T19:57:48.263Z,-14.77
2022-12-19T20:00:18.965Z,-14.76
2022-12-19T20:02:48.856Z,-14.73
2022-12-19T20:05:18.400Z,-14.76
2022-12-19T20:07:47.169Z,-14.81
2022-12-19T20:10:16.165Z,-14.88
2022-12-19T20:12:45.320Z,-14.93
2022-12-19T20:15:14.091Z,-15.00
2022-12-19T20:17:42.975Z,-15.05
2022-12-19T20:20:12.188Z,-15.06
2022-12-19T20:22:41.030Z,-15.07
2022-12-19T20:25:09.937Z,-15.08
2022-12-19T20:27:38.796Z,-15.08
2022-12-19T20:30:08.536Z,-15.10
2022-12-19T20:32:37.291Z,-15.07
2022-12-19T20:35:12.392Z,-15.05
2022-12-19T20:37:43.879Z,-14.99
2022-12-19T20:40:13.545Z,-14.96
2022-12-19T20:42:42.420Z,-14.95
2022-12-19T20:45:11.523Z,-14.94
2022-12-19T20:47:40.345Z,-14.95
2022-12-19T20:50:09.395Z,-14.96
2022-12-19T20:52:38.405Z,-14.97
2022-12-19T20:55:08.198Z,-15.01
2022-12-19T20:57:37.533Z,-15.04
2022-12-19T21:00:08.843Z,-15.02
2022-12-19T21:03:16.853Z,-15.01
2022-12-19T21:05:26.666Z,-15.01
2022-12-19T21:07:55.552Z,-15.02
2022-12-19T21:10:24.515Z,-15.02
2022-12-19T21:12:53.395Z,-15.03
2022-12-19T21:15:22.189Z,-15.05
2022-12-19T21:17:51.013Z,-15.09
2022-12-19T21:20:19.876Z,-15.04
2022-12-19T21:22:48.640Z,-15.01
2022-12-19T21:25:17.601Z,-15.04
2022-12-19T21:27:47.326Z,-15.05
2022-12-19T21:30:16.120Z,-15.09
2022-12-19T21:32:45.355Z,-15.14
2022-12-19T21:35:14.274Z,-15.10
2022-12-19T21:37:44.771Z,-15.13
2022-12-19T21:40:13.858Z,-15.13
2022-12-19T21:42:42.715Z,-15.15
2022-12-19T21:45:12.400Z,-15.15
2022-12-19T21:47:42.695Z,-15.18
2022-12-19T21:50:14.163Z,-15.18
2022-12-19T21:52:43.206Z,-15.15
2022-12-19T21:55:12.131Z,-15.15
2022-12-19T21:57:42.176Z,-15.11
2022-12-19T22:00:13.497Z,-15.13
2022-12-19T22:02:55.632Z,-15.14
2022-12-19T22:05:31.327Z,-15.18
2022-12-19T22:08:00.992Z,-15.21
2022-12-19T22:10:29.789Z,-15.23
2022-12-19T22:12:58.593Z,-15.24
2022-12-19T22:15:27.379Z,-15.28
2022-12-19T22:17:56.212Z,-15.29
2022-12-19T22:20:25.028Z,-15.28
2022-12-19T22:22:53.888Z,-15.32
2022-12-19T22:25:22.654Z,-15.27
2022-12-19T22:27:51.727Z,-15.25
2022-12-19T22:30:20.463Z,-15.24
2022-12-19T22:32:49.389Z,-15.25
2022-12-19T22:35:18.412Z,-15.24
2022-12-19T22:37:47.197Z,-15.25
2022-12-19T22:40:16.298Z,-15.23
2022-12-19T22:42:45.102Z,-15.24
2022-12-19T22:45:14.057Z,-15.26
2022-12-19T22:47:43.218Z,-15.29
2022-12-19T22:50:12.113Z,-15.32
2022-12-19T22:52:41.073Z,-15.35
2022-12-19T22:55:09.972Z,-15.35
2022-12-19T22:57:38.820Z,-15.39
2022-12-19T23:00:11.552Z,-15.35
2022-12-19T23:02:42.165Z,-15.33
2022-12-19T23:05:11.162Z,-15.31
2022-12-19T23:07:39.916Z,-15.32
2022-12-19T23:10:09.257Z,-15.30
2022-12-19T23:12:38.041Z,-15.26
2022-12-19T23:15:07.249Z,-15.25
2022-12-19T23:17:36.097Z,-15.20
2022-12-19T23:20:05.680Z,-15.16
2022-12-19T23:22:34.494Z,-15.13
2022-12-19T23:25:03.555Z,-15.15
2022-12-19T23:27:32.404Z,-15.14
2022-12-19T23:30:01.205Z,-15.11
2022-12-19T23:32:30.232Z,-15.10
2022-12-19T23:34:59.067Z,-15.13
2022-12-19T23:37:27.983Z,-15.12
2022-12-19T23:39:57.053Z,-15.10
2022-12-19T23:42:25.916Z,-15.06
2022-12-19T23:44:54.724Z,-15.06
2022-12-19T23:47:23.512Z,-15.04
2022-12-19T23:49:52.323Z,-15.04
2022-12-19T23:52:21.170Z,-15.00
2022-12-19T23:54:50.148Z,-14.97
2022-12-19T23:57:18.942Z,-14.93
2022-12-19T23:59:47.722Z,-14.93
